sensor_id;sensor_type;location;lat;lon;timestamp;temperature;humidity
1417;DHT22;703;51.162;13.574;2022-11-04T00:01:48;11.20;99.90
1417;DHT22;703;51.162;13.574;2022-11-04T00:04:16;11.20;99.90
1417;DHT22;703;51.162;13.574;2022-11-04T00:06:43;11.30;99.90
1417;DHT22;703;51.162;13.574;2022-11-04T00:09:14;11.40;99.90
1417;DHT22;703;51.162;13.574;2022-11-04T00:11:39;11.20;99.90
1417;DHT22;703;51.162;13.574;2022-11-04T00:14:24;11.20;99.90
1417;DHT22;703;51.162;13.574;2022-11-04T00:16:50;11.10;99.90
1417;DHT22;703;51.162;13.574;2022-11-04T00:19:34;11.20;99.90
1417;DHT22;703;51.162;13.574;2022-11-04T00:22:18;11.20;99.90
1417;DHT22;703;51.162;13.574;2022-11-04T00:25:03;11.20;99.90
1417;DHT22;703;51.162;13.574;2022-11-04T00:35:48;11.20;99.90
1417;DHT22;703;51.162;13.574;2022-11-04T00:38:14;11.20;99.90
1417;DHT22;703;51.162;13.574;2022-11-04T00:40:40;11.20;99.90
1417;DHT22;703;51.162;13.574;2022-11-04T01:00:08;11.10;99.90
1417;DHT22;703;51.162;13.574;2022-11-04T01:05:00;11.10;99.90
1417;DHT22;703;51.162;13.574;2022-11-04T01:07:25;11.00;99.90
1417;DHT22;703;51.162;13.574;2022-11-04T01:19:35;10.80;99.90
1417;DHT22;703;51.162;13.574;2022-11-04T01:22:00;10.80;99.90
1417;DHT22;703;51.162;13.574;2022-11-04T01:41:32;10.90;99.90
1417;DHT22;703;51.162;13.574;2022-11-04T01:46:37;10.90;99.90
1417;DHT22;703;51.162;13.574;2022-11-04T01:49:27;10.90;99.90
1417;DHT22;703;51.162;13.574;2022-11-04T01:52:32;11.00;99.90
1417;DHT22;703;51.162;13.574;2022-11-04T01:54:51;10.90;99.90
1417;DHT22;703;51.162;13.574;2022-11-04T01:57:29;10.80;99.90
1417;DHT22;703;51.162;13.574;2022-11-04T01:59:58;10.80;99.90
1417;DHT22;703;51.162;13.574;2022-11-04T02:02:25;10.90;99.90
1417;DHT22;703;51.162;13.574;2022-11-04T02:09:43;10.80;99.90
1417;DHT22;703;51.162;13.574;2022-11-04T02:14:54;10.80;99.90
1417;DHT22;703;51.162;13.574;2022-11-04T02:30:20;10.50;99.90
1417;DHT22;703;51.162;13.574;2022-11-04T02:33:13;10.50;99.90
1417;DHT22;703;51.162;13.574;2022-11-04T02:38:55;10.20;99.90
1417;DHT22;703;51.162;13.574;2022-11-04T02:51:25;10.20;99.90
1417;DHT22;703;51.162;13.574;2022-11-04T02:56:21;10.00;99.90
1417;DHT22;703;51.162;13.574;2022-11-04T02:58:52;10.00;99.90
1417;DHT22;703;51.162;13.574;2022-11-04T03:01:20;10.10;99.90
1417;DHT22;703;51.162;13.574;2022-11-04T03:03:51;10.00;99.90
1417;DHT22;703;51.162;13.574;2022-11-04T03:06:21;10.00;99.90
1417;DHT22;703;51.162;13.574;2022-11-04T03:08:50;9.90;99.90
1417;DHT22;703;51.162;13.574;2022-11-04T03:11:18;9.90;99.90
1417;DHT22;703;51.162;13.574;2022-11-04T03:14:02;9.80;99.90
1417;DHT22;703;51.162;13.574;2022-11-04T03:21:22;9.80;99.90
1417;DHT22;703;51.162;13.574;2022-11-04T03:26:38;9.80;99.90
1417;DHT22;703;51.162;13.574;2022-11-04T03:29:17;9.70;99.90
1417;DHT22;703;51.162;13.574;2022-11-04T03:31:54;9.80;99.90
1417;DHT22;703;51.162;13.574;2022-11-04T03:34:22;9.70;99.90
1417;DHT22;703;51.162;13.574;2022-11-04T03:36:48;9.60;99.90
1417;DHT22;703;51.162;13.574;2022-11-04T03:41:54;9.60;99.90
1417;DHT22;703;51.162;13.574;2022-11-04T03:44:21;9.60;99.90
1417;DHT22;703;51.162;13.574;2022-11-04T03:46:47;9.60;99.90
1417;DHT22;703;51.162;13.574;2022-11-04T03:51:39;9.60;99.90
1417;DHT22;703;51.162;13.574;2022-11-04T03:54:05;9.60;99.90
1417;DHT22;703;51.162;13.574;2022-11-04T03:56:59;9.60;99.90
1417;DHT22;703;51.162;13.574;2022-11-04T03:59:45;9.60;99.90
1417;DHT22;703;51.162;13.574;2022-11-04T04:02:23;9.60;99.90
1417;DHT22;703;51.162;13.574;2022-11-04T04:05:46;9.60;99.90
1417;DHT22;703;51.162;13.574;2022-11-04T04:10:29;9.60;99.90
1417;DHT22;703;51.162;13.574;2022-11-04T04:15:48;9.70;99.90
1417;DHT22;703;51.162;13.574;2022-11-04T04:18:18;9.80;99.90
1417;DHT22;703;51.162;13.574;2022-11-04T04:20:48;9.70;99.90
1417;DHT22;703;51.162;13.574;2022-11-04T04:23:18;9.70;99.90
1417;DHT22;703;51.162;13.574;2022-11-04T04:26:05;9.80;99.90
1417;DHT22;703;51.162;13.574;2022-11-04T04:28:53;9.80;99.90
1417;DHT22;703;51.162;13.574;2022-11-04T04:31:20;9.90;99.90
1417;DHT22;703;51.162;13.574;2022-11-04T04:34:07;10.00;99.90
1417;DHT22;703;51.162;13.574;2022-11-04T04:36:40;10.00;99.90
1417;DHT22;703;51.162;13.574;2022-11-04T04:39:08;10.10;99.90
1417;DHT22;703;51.162;13.574;2022-11-04T04:41:54;10.20;99.90
1417;DHT22;703;51.162;13.574;2022-11-04T04:44:40;10.20;99.90
1417;DHT22;703;51.162;13.574;2022-11-04T04:47:29;10.20;99.90
1417;DHT22;703;51.162;13.574;2022-11-04T04:49:57;10.20;99.90
1417;DHT22;703;51.162;13.574;2022-11-04T04:52:26;10.30;99.90
1417;DHT22;703;51.162;13.574;2022-11-04T04:54:53;10.20;99.90
1417;DHT22;703;51.162;13.574;2022-11-04T04:59:45;10.30;99.90
1417;DHT22;703;51.162;13.574;2022-11-04T05:02:11;10.40;99.90
1417;DHT22;703;51.162;13.574;2022-11-04T05:09:28;10.30;99.90
1417;DHT22;703;51.162;13.574;2022-11-04T05:11:55;10.40;99.90
1417;DHT22;703;51.162;13.574;2022-11-04T05:14:20;10.50;99.90
1417;DHT22;703;51.162;13.574;2022-11-04T05:36:15;10.30;99.90
1417;DHT22;703;51.162;13.574;2022-11-04T05:38:41;10.30;99.90
1417;DHT22;703;51.162;13.574;2022-11-04T05:41:09;10.30;99.90
1417;DHT22;703;51.162;13.574;2022-11-04T06:07:56;10.50;99.90
1417;DHT22;703;51.162;13.574;2022-11-04T06:10:22;10.50;99.90
1417;DHT22;703;51.162;13.574;2022-11-04T06:12:48;10.40;99.90
1417;DHT22;703;51.162;13.574;2022-11-04T06:20:06;10.50;99.90
1417;DHT22;703;51.162;13.574;2022-11-04T06:32:17;10.50;99.90
1417;DHT22;703;51.162;13.574;2022-11-04T06:34:43;10.50;99.90
1417;DHT22;703;51.162;13.574;2022-11-04T06:37:09;10.50;99.90
1417;DHT22;703;51.162;13.574;2022-11-04T06:49:20;10.50;99.90
1417;DHT22;703;51.162;13.574;2022-11-04T06:54:14;10.60;99.90
1417;DHT22;703;51.162;13.574;2022-11-04T06:56:40;10.70;99.90
1417;DHT22;703;51.162;13.574;2022-11-04T06:59:07;10.70;99.90
1417;DHT22;703;51.162;13.574;2022-11-04T07:01:35;10.70;99.90
1417;DHT22;703;51.162;13.574;2022-11-04T07:04:02;10.70;99.90
1417;DHT22;703;51.162;13.574;2022-11-04T07:08:58;10.80;99.90
1417;DHT22;703;51.162;13.574;2022-11-04T07:26:01;11.20;99.90
1417;DHT22;703;51.162;13.574;2022-11-04T07:28:27;11.20;99.90
1417;DHT22;703;51.162;13.574;2022-11-04T07:30:57;11.20;99.90
1417;DHT22;703;51.162;13.574;2022-11-04T07:33:24;11.20;99.90
1417;DHT22;703;51.162;13.574;2022-11-04T07:35:49;11.20;99.90
1417;DHT22;703;51.162;13.574;2022-11-04T07:40:41;11.10;99.90
1417;DHT22;703;51.162;13.574;2022-11-04T07:52:50;11.20;99.90
1417;DHT22;703;51.162;13.574;2022-11-04T07:55:17;11.20;99.90
1417;DHT22;703;51.162;13.574;2022-11-04T07:57:46;11.30;99.90
1417;DHT22;703;51.162;13.574;2022-11-04T08:00:14;11.20;99.90
1417;DHT22;703;51.162;13.574;2022-11-04T08:02:41;11.20;99.90
1417;DHT22;703;51.162;13.574;2022-11-04T08:05:07;11.20;99.90
1417;DHT22;703;51.162;13.574;2022-11-04T08:07:32;11.20;99.90
1417;DHT22;703;51.162;13.574;2022-11-04T08:14:52;11.20;99.90
1417;DHT22;703;51.162;13.574;2022-11-04T08:19:43;11.20;99.90
1417;DHT22;703;51.162;13.574;2022-11-04T08:22:09;11.30;99.90
1417;DHT22;703;51.162;13.574;2022-11-04T08:31:53;11.30;99.90
1417;DHT22;703;51.162;13.574;2022-11-04T08:34:18;11.30;99.90
1417;DHT22;703;51.162;13.574;2022-11-04T08:36:44;11.30;99.90
1417;DHT22;703;51.162;13.574;2022-11-04T08:39:11;11.30;99.90
1417;DHT22;703;51.162;13.574;2022-11-04T08:41:39;11.30;99.90
1417;DHT22;703;51.162;13.574;2022-11-04T08:44:05;11.30;99.90
1417;DHT22;703;51.162;13.574;2022-11-04T08:46:34;11.20;99.90
1417;DHT22;703;51.162;13.574;2022-11-04T08:51:27;11.20;99.90
1417;DHT22;703;51.162;13.574;2022-11-04T08:53:53;11.40;99.90
1417;DHT22;703;51.162;13.574;2022-11-04T08:56:23;11.40;99.90
1417;DHT22;703;51.162;13.574;2022-11-04T09:01:17;10.20;99.90
1417;DHT22;703;51.162;13.574;2022-11-04T09:03:43;11.20;99.90
1417;DHT22;703;51.162;13.574;2022-11-04T09:06:11;11.20;99.90
1417;DHT22;703;51.162;13.574;2022-11-04T09:08:38;11.10;99.90
1417;DHT22;703;51.162;13.574;2022-11-04T09:11:08;11.30;99.90
1417;DHT22;703;51.162;13.574;2022-11-04T09:30:36;11.10;99.90
1417;DHT22;703;51.162;13.574;2022-11-04T09:33:03;11.00;99.90
1417;DHT22;703;51.162;13.574;2022-11-04T09:40:23;11.00;99.90
1417;DHT22;703;51.162;13.574;2022-11-04T09:45:31;11.00;99.90
1417;DHT22;703;51.162;13.574;2022-11-04T09:48:06;10.90;99.90
1417;DHT22;703;51.162;13.574;2022-11-04T09:50:46;10.90;99.90
1417;DHT22;703;51.162;13.574;2022-11-04T09:53:17;11.00;99.90
1417;DHT22;703;51.162;13.574;2022-11-04T09:56:00;10.90;99.90
1417;DHT22;703;51.162;13.574;2022-11-04T09:58:31;10.80;99.90
1417;DHT22;703;51.162;13.574;2022-11-04T10:01:24;10.90;99.90
1417;DHT22;703;51.162;13.574;2022-11-04T10:06:39;10.80;99.90
1417;DHT22;703;51.162;13.574;2022-11-04T10:12:01;10.80;99.90
1417;DHT22;703;51.162;13.574;2022-11-04T10:20:48;10.80;99.90
1417;DHT22;703;51.162;13.574;2022-11-04T10:23:25;10.70;99.90
1417;DHT22;703;51.162;13.574;2022-11-04T10:26:09;10.70;99.90
1417;DHT22;703;51.162;13.574;2022-11-04T10:28:42;10.70;99.90
1417;DHT22;703;51.162;13.574;2022-11-04T10:31:17;10.70;99.90
1417;DHT22;703;51.162;13.574;2022-11-04T10:33:46;10.60;99.90
1417;DHT22;703;51.162;13.574;2022-11-04T10:36:13;10.60;99.90
1417;DHT22;703;51.162;13.574;2022-11-04T10:38:46;10.60;99.90
1417;DHT22;703;51.162;13.574;2022-11-04T10:41:23;10.60;99.90
1417;DHT22;703;51.162;13.574;2022-11-04T10:43:54;10.50;99.90
1417;DHT22;703;51.162;13.574;2022-11-04T10:51:45;10.50;99.90
1417;DHT22;703;51.162;13.574;2022-11-04T10:56:39;10.40;99.90
1417;DHT22;703;51.162;13.574;2022-11-04T11:02:00;10.50;99.90
1417;DHT22;703;51.162;13.574;2022-11-04T11:04:34;10.50;99.90
1417;DHT22;703;51.162;13.574;2022-11-04T11:07:02;10.40;99.90
1417;DHT22;703;51.162;13.574;2022-11-04T11:09:34;10.50;99.90
1417;DHT22;703;51.162;13.574;2022-11-04T11:14:40;10.40;99.90
1417;DHT22;703;51.162;13.574;2022-11-04T11:17:16;10.40;99.90
1417;DHT22;703;51.162;13.574;2022-11-04T11:20:21;10.40;99.90
1417;DHT22;703;51.162;13.574;2022-11-04T11:22:48;10.40;99.90
1417;DHT22;703;51.162;13.574;2022-11-04T11:25:27;10.30;99.90
1417;DHT22;703;51.162;13.574;2022-11-04T11:27:56;10.30;99.90
1417;DHT22;703;51.162;13.574;2022-11-04T11:30:32;10.30;99.90
1417;DHT22;703;51.162;13.574;2022-11-04T11:33:07;10.30;99.90
1417;DHT22;703;51.162;13.574;2022-11-04T11:35:45;10.20;99.90
1417;DHT22;703;51.162;13.574;2022-11-04T11:38:22;10.30;99.90
1417;DHT22;703;51.162;13.574;2022-11-04T11:40:49;10.20;99.90
1417;DHT22;703;51.162;13.574;2022-11-04T11:43:39;10.20;99.90
1417;DHT22;703;51.162;13.574;2022-11-04T11:48:48;10.20;99.90
1417;DHT22;703;51.162;13.574;2022-11-04T11:51:25;10.20;99.90
1417;DHT22;703;51.162;13.574;2022-11-04T11:54:31;10.20;99.90
1417;DHT22;703;51.162;13.574;2022-11-04T11:57:01;10.20;99.90
1417;DHT22;703;51.162;13.574;2022-11-04T12:02:25;10.20;99.90
1417;DHT22;703;51.162;13.574;2022-11-04T12:10:02;10.20;99.90
1417;DHT22;703;51.162;13.574;2022-11-04T12:15:24;10.20;99.90
1417;DHT22;703;51.162;13.574;2022-11-04T12:18:04;10.20;99.90
1417;DHT22;703;51.162;13.574;2022-11-04T12:20:51;10.30;99.90
1417;DHT22;703;51.162;13.574;2022-11-04T12:23:35;10.30;99.90
1417;DHT22;703;51.162;13.574;2022-11-04T12:28:52;10.30;99.90
1417;DHT22;703;51.162;13.574;2022-11-04T12:42:11;10.20;99.90
1417;DHT22;703;51.162;13.574;2022-11-04T12:47:37;10.30;99.90
1417;DHT22;703;51.162;13.574;2022-11-04T12:55:41;10.20;99.90
1417;DHT22;703;51.162;13.574;2022-11-04T12:58:30;10.20;99.90
1417;DHT22;703;51.162;13.574;2022-11-04T13:01:01;10.20;99.90
1417;DHT22;703;51.162;13.574;2022-11-04T13:03:39;10.20;99.90
1417;DHT22;703;51.162;13.574;2022-11-04T13:06:15;10.20;99.90
1417;DHT22;703;51.162;13.574;2022-11-04T13:09:14;10.20;99.90
1417;DHT22;703;51.162;13.574;2022-11-04T13:11:49;10.20;99.90
1417;DHT22;703;51.162;13.574;2022-11-04T13:14:22;10.10;99.90
1417;DHT22;703;51.162;13.574;2022-11-04T13:16:56;10.20;99.90
1417;DHT22;703;51.162;13.574;2022-11-04T13:19:34;10.20;99.90
1417;DHT22;703;51.162;13.574;2022-11-04T13:22:04;10.10;99.90
1417;DHT22;703;51.162;13.574;2022-11-04T13:24:34;10.10;99.90
1417;DHT22;703;51.162;13.574;2022-11-04T13:27:08;10.00;99.90
1417;DHT22;703;51.162;13.574;2022-11-04T13:34:47;10.10;99.90
1417;DHT22;703;51.162;13.574;2022-11-04T13:39:45;10.10;99.90
1417;DHT22;703;51.162;13.574;2022-11-04T13:44:50;10.00;99.90
1417;DHT22;703;51.162;13.574;2022-11-04T13:47:22;10.00;99.90
1417;DHT22;703;51.162;13.574;2022-11-04T13:49:54;10.00;99.90
1417;DHT22;703;51.162;13.574;2022-11-04T13:52:21;10.00;99.90
1417;DHT22;703;51.162;13.574;2022-11-04T13:55:05;10.00;99.90
1417;DHT22;703;51.162;13.574;2022-11-04T13:57:53;10.00;99.90
1417;DHT22;703;51.162;13.574;2022-11-04T14:00:22;9.90;99.90
1417;DHT22;703;51.162;13.574;2022-11-04T14:02:56;9.80;99.90
1417;DHT22;703;51.162;13.574;2022-11-04T14:16:03;9.70;99.90
1417;DHT22;703;51.162;13.574;2022-11-04T14:18:33;9.70;99.90
1417;DHT22;703;51.162;13.574;2022-11-04T14:21:08;9.60;99.90
1417;DHT22;703;51.162;13.574;2022-11-04T14:23:36;9.60;99.90
1417;DHT22;703;51.162;13.574;2022-11-04T14:26:11;9.50;99.90
1417;DHT22;703;51.162;13.574;2022-11-04T14:28:38;9.50;99.90
1417;DHT22;703;51.162;13.574;2022-11-04T14:31:10;9.40;99.90
1417;DHT22;703;51.162;13.574;2022-11-04T14:33:54;9.40;99.90
1417;DHT22;703;51.162;13.574;2022-11-04T14:41:48;9.40;99.90
1417;DHT22;703;51.162;13.574;2022-11-04T14:44:24;9.40;99.90
1417;DHT22;703;51.162;13.574;2022-11-04T14:46:56;9.30;99.90
1417;DHT22;703;51.162;13.574;2022-11-04T14:49:45;9.20;99.90
1417;DHT22;703;51.162;13.574;2022-11-04T14:58:22;9.20;99.90
1417;DHT22;703;51.162;13.574;2022-11-04T15:05:49;9.20;99.90
1417;DHT22;703;51.162;13.574;2022-11-04T15:08:41;9.20;99.90
1417;DHT22;703;51.162;13.574;2022-11-04T15:11:13;9.20;99.90
1417;DHT22;703;51.162;13.574;2022-11-04T15:13:46;9.20;99.90
1417;DHT22;703;51.162;13.574;2022-11-04T15:16:23;9.20;99.90
1417;DHT22;703;51.162;13.574;2022-11-04T15:18:51;9.10;99.90
1417;DHT22;703;51.162;13.574;2022-11-04T15:24:02;9.20;99.90
1417;DHT22;703;51.162;13.574;2022-11-04T15:26:30;9.20;99.90
1417;DHT22;703;51.162;13.574;2022-11-04T15:29:06;9.10;99.90
1417;DHT22;703;51.162;13.574;2022-11-04T15:31:33;9.10;99.90
1417;DHT22;703;51.162;13.574;2022-11-04T15:34:03;9.10;99.90
1417;DHT22;703;51.162;13.574;2022-11-04T15:36:35;9.10;99.90
1417;DHT22;703;51.162;13.574;2022-11-04T15:41:33;9.10;99.90
1417;DHT22;703;51.162;13.574;2022-11-04T15:44:32;9.10;99.90
1417;DHT22;703;51.162;13.574;2022-11-04T15:52:12;9.10;99.90
1417;DHT22;703;51.162;13.574;2022-11-04T15:54:40;9.00;99.90
1417;DHT22;703;51.162;13.574;2022-11-04T15:57:16;9.10;99.90
1417;DHT22;703;51.162;13.574;2022-11-04T15:59:58;9.10;99.90
1417;DHT22;703;51.162;13.574;2022-11-04T16:02:46;9.10;99.90
1417;DHT22;703;51.162;13.574;2022-11-04T16:07:42;9.10;99.90
1417;DHT22;703;51.162;13.574;2022-11-04T16:13:43;9.10;99.90
1417;DHT22;703;51.162;13.574;2022-11-04T16:15:46;9.10;99.90
1417;DHT22;703;51.162;13.574;2022-11-04T16:21:24;9.10;99.90
1417;DHT22;703;51.162;13.574;2022-11-04T16:24:04;9.10;99.90
1417;DHT22;703;51.162;13.574;2022-11-04T16:26:39;9.10;99.90
1417;DHT22;703;51.162;13.574;2022-11-04T16:29:08;9.10;99.90
1417;DHT22;703;51.162;13.574;2022-11-04T16:31:36;9.10;99.90
1417;DHT22;703;51.162;13.574;2022-11-04T16:34:02;9.10;99.90
1417;DHT22;703;51.162;13.574;2022-11-04T16:36:28;9.00;99.90
1417;DHT22;703;51.162;13.574;2022-11-04T16:38:58;9.10;99.90
1417;DHT22;703;51.162;13.574;2022-11-04T16:41:28;9.10;99.90
1417;DHT22;703;51.162;13.574;2022-11-04T16:43:54;9.10;99.90
1417;DHT22;703;51.162;13.574;2022-11-04T16:46:20;9.00;99.90
1417;DHT22;703;51.162;13.574;2022-11-04T16:48:47;9.00;99.90
1417;DHT22;703;51.162;13.574;2022-11-04T16:51:19;9.00;99.90
1417;DHT22;703;51.162;13.574;2022-11-04T16:53:50;9.00;99.90
1417;DHT22;703;51.162;13.574;2022-11-04T16:56:17;9.10;99.90
1417;DHT22;703;51.162;13.574;2022-11-04T16:58:43;9.00;99.90
1417;DHT22;703;51.162;13.574;2022-11-04T17:01:12;9.00;99.90
1417;DHT22;703;51.162;13.574;2022-11-04T17:08:31;9.00;99.90
1417;DHT22;703;51.162;13.574;2022-11-04T17:18:17;8.90;99.90
1417;DHT22;703;51.162;13.574;2022-11-04T17:20:54;8.90;99.90
1417;DHT22;703;51.162;13.574;2022-11-04T17:23:20;9.00;99.90
1417;DHT22;703;51.162;13.574;2022-11-04T17:25:46;8.90;99.90
1417;DHT22;703;51.162;13.574;2022-11-04T17:35:34;8.80;99.90
1417;DHT22;703;51.162;13.574;2022-11-04T17:45:39;8.80;99.90
1417;DHT22;703;51.162;13.574;2022-11-04T17:52:58;8.80;99.90
1417;DHT22;703;51.162;13.574;2022-11-04T17:55:24;8.80;99.90
1417;DHT22;703;51.162;13.574;2022-11-04T18:15:08;8.80;99.90
1417;DHT22;703;51.162;13.574;2022-11-04T18:17:42;8.80;99.90
1417;DHT22;703;51.162;13.574;2022-11-04T18:20:09;8.80;99.90
1417;DHT22;703;51.162;13.574;2022-11-04T18:22:36;8.80;99.90
1417;DHT22;703;51.162;13.574;2022-11-04T18:25:04;8.80;99.90
1417;DHT22;703;51.162;13.574;2022-11-04T18:34:48;8.70;99.90
1417;DHT22;703;51.162;13.574;2022-11-04T18:59:12;8.80;99.90
1417;DHT22;703;51.162;13.574;2022-11-04T19:01:39;8.80;99.90
1417;DHT22;703;51.162;13.574;2022-11-04T19:06:34;8.80;99.90
1417;DHT22;703;51.162;13.574;2022-11-04T19:09:03;8.80;99.90
1417;DHT22;703;51.162;13.574;2022-11-04T19:11:31;8.80;99.90
1417;DHT22;703;51.162;13.574;2022-11-04T19:14:01;8.80;99.90
1417;DHT22;703;51.162;13.574;2022-11-04T19:16:27;8.80;99.90
1417;DHT22;703;51.162;13.574;2022-11-04T19:18:54;8.70;99.90
1417;DHT22;703;51.162;13.574;2022-11-04T19:21:22;8.80;99.90
1417;DHT22;703;51.162;13.574;2022-11-04T19:23:48;8.70;99.90
1417;DHT22;703;51.162;13.574;2022-11-04T19:26:21;8.70;99.90
1417;DHT22;703;51.162;13.574;2022-11-04T19:28:47;8.70;99.90
1417;DHT22;703;51.162;13.574;2022-11-04T19:31:16;8.70;99.90
1417;DHT22;703;51.162;13.574;2022-11-04T19:36:10;8.60;99.90
1417;DHT22;703;51.162;13.574;2022-11-04T19:41:12;8.70;99.90
1417;DHT22;703;51.162;13.574;2022-11-04T19:53:42;8.70;99.90
1417;DHT22;703;51.162;13.574;2022-11-04T19:56:13;8.70;99.90
1417;DHT22;703;51.162;13.574;2022-11-04T20:13:17;8.70;99.90
1417;DHT22;703;51.162;13.574;2022-11-04T20:16:05;8.70;99.90
1417;DHT22;703;51.162;13.574;2022-11-04T20:18:35;8.70;99.90
1417;DHT22;703;51.162;13.574;2022-11-04T20:21:02;8.70;99.90
1417;DHT22;703;51.162;13.574;2022-11-04T20:25:54;8.70;99.90
1417;DHT22;703;51.162;13.574;2022-11-04T20:33:11;8.70;99.90
1417;DHT22;703;51.162;13.574;2022-11-04T20:45:22;8.70;99.90
1417;DHT22;703;51.162;13.574;2022-11-04T20:57:35;8.70;99.90
1417;DHT22;703;51.162;13.574;2022-11-04T21:29:19;8.70;99.90
1417;DHT22;703;51.162;13.574;2022-11-04T21:31:46;8.70;99.90
1417;DHT22;703;51.162;13.574;2022-11-04T21:34:12;8.70;99.90
1417;DHT22;703;51.162;13.574;2022-11-04T21:36:38;8.70;99.90
1417;DHT22;703;51.162;13.574;2022-11-04T21:39:04;8.70;99.90
1417;DHT22;703;51.162;13.574;2022-11-04T21:41:31;8.60;99.90
1417;DHT22;703;51.162;13.574;2022-11-04T21:44:06;8.60;99.90
1417;DHT22;703;51.162;13.574;2022-11-04T21:51:29;8.70;99.90
1417;DHT22;703;51.162;13.574;2022-11-04T21:53:56;8.70;99.90
1417;DHT22;703;51.162;13.574;2022-11-04T21:56:28;8.60;99.90
1417;DHT22;703;51.162;13.574;2022-11-04T21:58:57;8.70;99.90
1417;DHT22;703;51.162;13.574;2022-11-04T22:01:25;8.70;99.90
1417;DHT22;703;51.162;13.574;2022-11-04T22:03:54;8.60;99.90
1417;DHT22;703;51.162;13.574;2022-11-04T22:08:48;8.60;99.90
1417;DHT22;703;51.162;13.574;2022-11-04T22:11:17;8.60;99.90
1417;DHT22;703;51.162;13.574;2022-11-04T22:16:17;8.60;99.90
1417;DHT22;703;51.162;13.574;2022-11-04T22:21:12;8.60;99.90
1417;DHT22;703;51.162;13.574;2022-11-04T22:26:06;8.50;99.90
1417;DHT22;703;51.162;13.574;2022-11-04T22:31:09;8.60;99.90
1417;DHT22;703;51.162;13.574;2022-11-04T22:36:03;8.50;99.90
1417;DHT22;703;51.162;13.574;2022-11-04T22:38:30;8.60;99.90
1417;DHT22;703;51.162;13.574;2022-11-04T22:40:57;8.50;99.90
1417;DHT22;703;51.162;13.574;2022-11-04T22:43:24;8.50;99.90
1417;DHT22;703;51.162;13.574;2022-11-04T22:45:54;8.50;99.90
1417;DHT22;703;51.162;13.574;2022-11-04T22:50:53;8.50;99.90
1417;DHT22;703;51.162;13.574;2022-11-04T23:05:33;8.50;99.90
1417;DHT22;703;51.162;13.574;2022-11-04T23:10:26;8.50;99.90
1417;DHT22;703;51.162;13.574;2022-11-04T23:15:57;8.50;99.90
1417;DHT22;703;51.162;13.574;2022-11-04T23:18:42;8.40;99.90
1417;DHT22;703;51.162;13.574;2022-11-04T23:21:13;8.50;99.90
1417;DHT22;703;51.162;13.574;2022-11-04T23:23:58;8.50;99.90
1417;DHT22;703;51.162;13.574;2022-11-04T23:26:43;8.40;99.90
1417;DHT22;703;51.162;13.574;2022-11-04T23:29:10;8.40;99.90
1417;DHT22;703;51.162;13.574;2022-11-04T23:39:42;8.30;99.90
1417;DHT22;703;51.162;13.574;2022-11-04T23:42:16;8.40;99.90
1417;DHT22;703;51.162;13.574;2022-11-04T23:47:35;8.40;99.90
1417;DHT22;703;51.162;13.574;2022-11-04T23:50:20;8.40;99.90
1417;DHT22;703;51.162;13.574;2022-11-04T23:53:04;8.40;99.90
1417;DHT22;703;51.162;13.574;2022-11-04T23:55:49;8.40;99.90
